Time;durP1;ratioP1;P1;durP2;ratioP2;P2;SDS_P1;SDS_P2;PMS_P1;PMS_P2;Temp;Humidity;BMP_temperature;BMP_pressure;BME280_temperature;BME280_humidity;BME280_pressure;Samples;Min_cycle;Max_cycle;Signal;HPM_P1;HPM_P2
2023/10/28 00:01:11;;;;;;;1999.90;999.90;;;;;;;14.27;85.79;95409.53;5136830;27;20047;-63
2023/10/28 00:03:39;;;;;;;1999.90;999.90;;;;;;;14.30;86.24;95411.94;5136744;27;20075;-62
2023/10/28 00:06:07;;;;;;;1999.90;999.90;;;;;;;14.36;86.02;95411.50;5136731;27;20401;-61
2023/10/28 00:08:34;;;;;;;1999.90;999.90;;;;;;;14.40;85.67;95407.72;5136725;27;20050;-63
2023/10/28 00:11:03;;;;;;;1999.90;999.90;;;;;;;14.47;85.28;95409.88;5136934;27;20043;-63
2023/10/28 00:13:30;;;;;;;1999.90;999.90;;;;;;;14.46;84.63;95419.59;5136659;27;20074;-62
2023/10/28 00:15:57;;;;;;;1999.90;999.90;;;;;;;14.46;84.44;95424.00;5136497;27;20474;-62
2023/10/28 00:18:25;;;;;;;1999.90;999.90;;;;;;;14.45;84.60;95428.41;5136324;27;20043;-63
2023/10/28 00:20:55;;;;;;;1999.90;999.90;;;;;;;14.43;83.84;95427.69;5136479;27;20058;-62
2023/10/28 00:23:22;;;;;;;1999.90;999.90;;;;;;;14.41;83.18;95426.97;5136431;27;20141;-62
2023/10/28 00:25:49;;;;;;;1999.90;999.90;;;;;;;14.38;83.56;95438.53;5136724;27;20051;-62
2023/10/28 00:28:17;;;;;;;1999.90;999.90;;;;;;;14.37;83.74;95442.13;5136207;27;20043;-62
2023/10/28 00:30:45;;;;;;;1999.90;999.90;;;;;;;14.36;83.56;95450.97;5136138;27;20487;-62
2023/10/28 00:33:12;;;;;;;1999.90;999.90;;;;;;;14.34;83.50;95446.75;5136392;27;20047;-63
2023/10/28 00:35:42;;;;;;;1999.90;999.90;;;;;;;14.28;84.02;95453.31;5136058;27;20047;-63
2023/10/28 00:38:10;;;;;;;1999.90;999.90;;;;;;;14.29;84.23;95444.44;5136106;27;20055;-63
2023/10/28 00:40:38;;;;;;;1999.90;999.90;;;;;;;14.27;84.08;95441.09;5136057;27;20051;-62
2023/10/28 00:43:10;;;;;;;1999.90;999.90;;;;;;;14.25;83.76;95437.72;5136172;27;20480;-63
2023/10/28 00:45:38;;;;;;;1999.90;999.90;;;;;;;14.30;83.28;95426.88;5135897;27;20047;-63
2023/10/28 00:48:05;;;;;;;1999.90;999.90;;;;;;;14.32;82.08;95420.56;5135993;27;20085;-62
2023/10/28 00:50:32;;;;;;;1999.90;999.90;;;;;;;14.39;81.18;95424.44;5135985;27;20497;-63
2023/10/28 00:53:02;;;;;;;1999.90;999.90;;;;;;;14.46;80.65;95422.22;5135797;27;20098;-63
2023/10/28 00:55:31;;;;;;;1999.90;999.90;;;;;;;14.58;79.80;95420.50;5135749;27;20039;-63
2023/10/28 00:57:58;;;;;;;1999.90;999.90;;;;;;;14.68;79.10;95425.06;5135666;27;20079;-63
2023/10/28 01:00:25;;;;;;;1999.90;999.90;;;;;;;14.80;78.33;95421.59;5135566;27;20051;-63
2023/10/28 01:02:52;;;;;;;1999.90;999.90;;;;;;;14.84;77.82;95420.41;5135592;27;20510;-63
2023/10/28 01:05:21;;;;;;;1999.90;999.90;;;;;;;14.94;77.49;95417.97;5135433;27;20051;-62
2023/10/28 01:07:50;;;;;;;1999.90;999.90;;;;;;;14.96;76.92;95415.22;5135457;27;20051;-62
2023/10/28 01:10:26;;;;;;;1999.90;999.90;;;;;;;14.99;76.68;95415.81;5135267;27;20058;-62
2023/10/28 01:12:54;;;;;;;1999.90;999.90;;;;;;;14.97;76.64;95424.78;5135533;27;20039;-63
2023/10/28 01:15:22;;;;;;;1999.90;999.90;;;;;;;14.94;76.50;95425.88;5135460;27;20043;-62
2023/10/28 01:17:49;;;;;;;1999.90;999.90;;;;;;;14.92;76.28;95430.38;5135278;27;20051;-63
2023/10/28 01:20:16;;;;;;;1999.90;999.90;;;;;;;14.91;75.77;95429.53;5135272;27;20051;-62
2023/10/28 01:22:45;;;;;;;1999.90;999.90;;;;;;;14.91;75.86;95437.44;5135337;27;20134;-62
2023/10/28 01:25:12;;;;;;;1999.90;999.90;;;;;;;14.91;75.75;95436.63;5135258;27;20499;-63
2023/10/28 01:27:39;;;;;;;1999.90;999.90;;;;;;;14.93;75.65;95437.31;5135238;27;20047;-63
2023/10/28 01:30:13;;;;;;;1999.90;999.90;;;;;;;14.85;75.88;95450.22;5135274;27;20054;-62
2023/10/28 01:32:40;;;;;;;1999.90;999.90;;;;;;;14.83;75.95;95449.47;5135055;27;20499;-63
2023/10/28 01:35:10;;;;;;;1999.90;999.90;;;;;;;14.81;75.78;95459.28;5135026;27;20043;-63
2023/10/28 01:37:38;;;;;;;1999.90;999.90;;;;;;;14.79;75.67;95459.41;5134667;27;20058;-63
2023/10/28 01:40:12;;;;;;;1999.90;999.90;;;;;;;14.74;75.58;95470.22;5134811;27;20078;-63
2023/10/28 01:42:40;;;;;;;1999.90;999.90;;;;;;;14.70;75.75;95467.94;5134790;27;20047;-62
2023/10/28 01:45:09;;;;;;;1999.90;999.90;;;;;;;14.59;76.60;95460.78;5134767;27;20055;-62
2023/10/28 01:47:36;;;;;;;1999.90;999.90;;;;;;;14.46;77.04;95468.72;5134672;27;20047;-63
2023/10/28 01:50:04;;;;;;;1999.90;999.90;;;;;;;14.45;77.15;95464.41;5134965;27;20134;-63
2023/10/28 01:52:31;;;;;;;1999.90;999.90;;;;;;;14.42;76.97;95459.38;5134688;27;20117;-63
2023/10/28 01:54:58;;;;;;;1999.90;999.90;;;;;;;14.37;77.31;95463.19;5134729;27;20047;-62
2023/10/28 01:57:27;;;;;;;1999.90;999.90;;;;;;;14.30;77.46;95454.00;5134610;27;20100;-62
2023/10/28 01:59:55;;;;;;;1999.90;999.90;;;;;;;14.27;77.58;95459.50;5134380;27;20511;-62
2023/10/28 02:02:22;;;;;;;1999.90;999.90;;;;;;;14.25;77.73;95458.78;5134408;27;20058;-64
2023/10/28 02:04:51;;;;;;;1999.90;999.90;;;;;;;14.18;77.68;95465.41;5134156;27;20045;-63
2023/10/28 02:07:18;;;;;;;1999.90;999.90;;;;;;;14.14;77.83;95465.63;5134376;27;20051;-63
2023/10/28 02:09:48;;;;;;;1999.90;999.90;;;;;;;14.12;77.78;95459.63;5134428;27;20039;-63
2023/10/28 02:12:15;;;;;;;1999.90;999.90;;;;;;;14.08;77.88;95460.78;5134341;27;20047;-63
2023/10/28 02:14:46;;;;;;;1999.90;999.90;;;;;;;14.07;77.68;95471.41;5134528;27;20053;-62
2023/10/28 02:17:13;;;;;;;1999.90;999.90;;;;;;;14.06;77.64;95481.06;5134473;27;20054;-63
2023/10/28 02:19:41;;;;;;;1999.90;999.90;;;;;;;14.05;77.71;95479.41;5134159;27;20047;-62
2023/10/28 02:22:09;;;;;;;1999.90;999.90;;;;;;;13.99;77.59;95475.41;5134096;27;20130;-63
2023/10/28 02:24:37;;;;;;;1999.90;999.90;;;;;;;13.93;77.79;95472.38;5134284;27;20396;-62
2023/10/28 02:27:05;;;;;;;1999.90;999.90;;;;;;;13.82;77.70;95481.81;5134103;27;20139;-62
2023/10/28 02:29:32;;;;;;;1999.90;999.90;;;;;;;13.83;77.92;95494.03;5134174;27;20094;-62
2023/10/28 02:32:00;;;;;;;1999.90;999.90;;;;;;;13.82;77.99;95491.50;5134123;27;20043;-62
2023/10/28 02:34:28;;;;;;;1999.90;999.90;;;;;;;13.77;77.95;95492.66;5133987;27;20043;-62
2023/10/28 02:36:56;;;;;;;1999.90;999.90;;;;;;;13.65;78.29;95496.09;5133943;27;20047;-62
2023/10/28 02:39:23;;;;;;;1999.90;999.90;;;;;;;13.60;78.68;95493.78;5133981;28;20090;-62
2023/10/28 02:41:50;;;;;;;1999.90;999.90;;;;;;;13.60;78.75;95503.44;5133980;28;20532;-63
2023/10/28 02:44:17;;;;;;;1999.90;999.90;;;;;;;13.59;78.82;95500.00;5133997;28;20419;-62
2023/10/28 02:46:44;;;;;;;1999.90;999.90;;;;;;;13.55;78.72;95501.16;5133993;28;20043;-63
2023/10/28 02:49:13;;;;;;;1999.90;999.90;;;;;;;13.50;79.13;95501.44;5133995;28;20126;-63
2023/10/28 02:51:41;;;;;;;1999.90;999.90;;;;;;;13.52;78.76;95506.59;5133922;28;20377;-63
2023/10/28 02:54:09;;;;;;;1999.90;999.90;;;;;;;13.50;78.63;95509.31;5134173;28;20512;-62
2023/10/28 02:56:36;;;;;;;1999.90;999.90;;;;;;;13.45;78.73;95503.50;5133895;28;20116;-62
2023/10/28 02:59:06;;;;;;;1999.90;999.90;;;;;;;13.38;78.75;95510.94;5133800;28;20071;-63
2023/10/28 03:01:36;;;;;;;1999.90;999.90;;;;;;;13.28;79.40;95512.50;5133605;28;20093;-63
2023/10/28 03:04:04;;;;;;;1999.90;999.90;;;;;;;13.30;79.45;95520.28;5133838;28;20416;-63
2023/10/28 03:06:33;;;;;;;1999.90;999.90;;;;;;;13.33;79.50;95517.44;5133630;28;20480;-62
2023/10/28 03:09:00;;;;;;;1999.90;999.90;;;;;;;13.32;79.41;95518.38;5133690;28;20048;-61
2023/10/28 03:11:27;;;;;;;1999.90;999.90;;;;;;;13.29;79.34;95523.81;5133627;28;20047;-63
2023/10/28 03:13:54;;;;;;;1999.90;999.90;;;;;;;13.27;79.25;95518.66;5133749;28;20043;-62
2023/10/28 03:16:21;;;;;;;1999.90;999.90;;;;;;;13.24;79.11;95514.47;5133762;27;20104;-63
2023/10/28 03:18:49;;;;;;;1999.90;999.90;;;;;;;13.22;79.07;95526.00;5136632;27;20047;-63
2023/10/28 03:21:16;;;;;;;1999.90;999.90;;;;;;;13.15;79.24;95520.31;5137550;27;20043;-63
2023/10/28 03:23:45;;;;;;;1999.90;999.90;;;;;;;13.14;79.62;95527.34;5137444;27;20093;-63
2023/10/28 03:26:12;;;;;;;1999.90;999.90;;;;;;;13.13;79.52;95525.66;5137545;27;20096;-63
2023/10/28 03:28:39;;;;;;;1999.90;999.90;;;;;;;13.01;79.69;95523.84;5137467;27;20546;-62
2023/10/28 03:31:10;;;;;;;1999.90;999.90;;;;;;;12.98;79.95;95516.97;5137257;27;20497;-63
2023/10/28 03:33:38;;;;;;;1999.90;999.90;;;;;;;12.91;80.47;95520.13;5137357;27;20042;-61
2023/10/28 03:36:06;;;;;;;1999.90;999.90;;;;;;;12.89;80.60;95522.84;5137260;27;20537;-61
2023/10/28 03:38:34;;;;;;;1999.90;999.90;;;;;;;12.89;80.47;95523.66;5136986;27;20070;-62
2023/10/28 03:41:08;;;;;;;1999.90;999.90;;;;;;;12.91;80.13;95520.13;5137199;27;20398;-64
2023/10/28 03:43:36;;;;;;;1999.90;999.90;;;;;;;12.80;80.45;95520.78;5137209;27;20524;-63
2023/10/28 03:46:04;;;;;;;1999.90;999.90;;;;;;;12.81;81.06;95522.47;5137245;27;20053;-63
2023/10/28 03:48:33;;;;;;;1999.90;999.90;;;;;;;12.81;81.28;95525.94;5137004;27;20477;-63
2023/10/28 03:51:01;;;;;;;1999.90;999.90;;;;;;;12.80;81.28;95532.13;5137044;27;20090;-63
2023/10/28 03:53:29;;;;;;;1999.90;999.90;;;;;;;12.74;81.05;95535.97;5128724;27;20047;-63
2023/10/28 03:55:57;;;;;;;1999.90;999.90;;;;;;;12.69;81.96;95534.56;5136882;27;20054;-64
2023/10/28 03:58:26;;;;;;;1999.90;999.90;;;;;;;12.69;81.88;95543.31;5136800;27;20129;-63
2023/10/28 04:00:54;;;;;;;1999.90;999.90;;;;;;;12.66;81.80;95535.63;5136775;27;20385;-64
2023/10/28 04:03:21;;;;;;;1999.90;999.90;;;;;;;12.63;81.89;95526.16;5136894;27;20054;-64
2023/10/28 04:05:49;;;;;;;1999.90;999.90;;;;;;;12.59;81.77;95532.56;5136766;27;20061;-62
2023/10/28 04:08:17;;;;;;;1999.90;999.90;;;;;;;12.62;81.97;95534.13;5136672;27;20058;-64
2023/10/28 04:10:46;;;;;;;1999.90;999.90;;;;;;;12.63;81.57;95543.69;5136572;27;20043;-64
2023/10/28 04:13:14;;;;;;;1999.90;999.90;;;;;;;12.55;81.39;95538.06;5136528;27;20138;-63
2023/10/28 04:15:46;;;;;;;1999.90;999.90;;;;;;;12.49;81.66;95540.13;5136393;27;20049;-63
2023/10/28 04:18:15;;;;;;;1999.90;999.90;;;;;;;12.49;81.73;95540.13;5136436;27;20504;-64
2023/10/28 04:20:44;;;;;;;1999.90;999.90;;;;;;;12.44;81.68;95539.59;5135964;27;20047;-63
2023/10/28 04:23:11;;;;;;;1999.90;999.90;;;;;;;12.36;81.68;95544.44;5136359;27;20051;-64
2023/10/28 04:25:38;;;;;;;1999.90;999.90;;;;;;;12.34;82.34;95536.66;5136408;27;20046;-62
2023/10/28 04:28:05;;;;;;;1999.90;999.90;;;;;;;12.35;81.83;95550.63;5135814;27;20485;-64
2023/10/28 04:30:32;;;;;;;1999.90;999.90;;;;;;;12.28;82.17;95554.56;5136313;27;20126;-63
2023/10/28 04:33:03;;;;;;;1999.90;999.90;;;;;;;12.27;82.46;95558.97;5136024;27;20039;-63
2023/10/28 04:35:31;;;;;;;1999.90;999.90;;;;;;;12.28;82.35;95560.63;5136182;27;20047;-63
2023/10/28 04:37:58;;;;;;;1999.90;999.90;;;;;;;12.21;82.69;95570.66;5135921;27;20130;-62
2023/10/28 04:40:26;;;;;;;1999.90;999.90;;;;;;;12.18;82.90;95568.22;5136024;27;20097;-62
2023/10/28 04:42:53;;;;;;;1999.90;999.90;;;;;;;12.11;83.05;95573.00;5135957;27;20058;-63
2023/10/28 04:45:21;;;;;;;1999.90;999.90;;;;;;;12.10;83.21;95580.97;5136016;27;20135;-62
2023/10/28 04:47:48;;;;;;;1999.90;999.90;;;;;;;12.09;83.31;95580.09;5135971;27;20377;-64
2023/10/28 04:50:17;;;;;;;1999.90;999.90;;;;;;;12.11;82.81;95577.38;5135918;27;20043;-64
2023/10/28 04:52:44;;;;;;;1999.90;999.90;;;;;;;12.12;82.79;95581.69;5136009;27;20050;-64
2023/10/28 04:55:16;;;;;;;1999.90;999.90;;;;;;;12.12;83.30;95590.41;5135796;27;20043;-64
2023/10/28 04:57:43;;;;;;;1999.90;999.90;;;;;;;12.15;83.22;95589.38;5135551;27;20073;-64
2023/10/28 05:00:13;;;;;;;1999.90;999.90;;;;;;;12.17;83.53;95587.53;5135505;27;20107;-63
2023/10/28 05:02:41;;;;;;;1999.90;999.90;;;;;;;12.19;83.40;95590.88;5135554;27;20051;-63
2023/10/28 05:05:09;;;;;;;1999.90;999.90;;;;;;;12.23;83.59;95591.53;5135821;27;20046;-63
2023/10/28 05:07:39;;;;;;;1999.90;999.90;;;;;;;12.29;83.28;95601.66;5135611;27;20050;-64
2023/10/28 05:10:09;;;;;;;1999.90;999.90;;;;;;;12.37;82.88;95603.81;5135657;27;20124;-63
2023/10/28 05:12:38;;;;;;;1999.90;999.90;;;;;;;12.42;82.44;95609.63;5135487;27;20043;-63
2023/10/28 05:15:07;;;;;;;1999.90;999.90;;;;;;;12.51;82.29;95616.94;5135476;27;20043;-64
2023/10/28 05:17:34;;;;;;;1999.90;999.90;;;;;;;12.61;82.34;95616.38;5135401;27;20043;-62
2023/10/28 05:20:06;;;;;;;1999.90;999.90;;;;;;;12.74;82.11;95633.06;5135031;27;20461;-64
2023/10/28 05:22:35;;;;;;;1999.90;999.90;;;;;;;12.88;81.91;95642.72;5135215;27;20397;-64
2023/10/28 05:25:04;;;;;;;1999.90;999.90;;;;;;;13.20;82.16;95648.66;5135209;27;20118;-62
2023/10/28 05:27:32;;;;;;;1999.90;999.90;;;;;;;14.11;78.57;95657.78;5135199;27;20051;-63
2023/10/28 05:30:03;;;;;;;1999.90;999.90;;;;;;;15.35;74.14;95662.66;5135057;27;20047;-63
2023/10/28 05:32:30;;;;;;;1999.90;999.90;;;;;;;16.75;68.61;95668.25;5135041;27;20051;-65
2023/10/28 05:34:57;;;;;;;1999.90;999.90;;;;;;;18.13;63.19;95678.69;5134934;27;20058;-63
2023/10/28 05:37:26;;;;;;;1999.90;999.90;;;;;;;19.44;57.64;95671.25;5134562;27;20446;-65
2023/10/28 05:39:53;;;;;;;1999.90;999.90;;;;;;;20.67;54.46;95682.50;5134289;27;20043;-63
2023/10/28 05:42:23;;;;;;;1999.90;999.90;;;;;;;21.56;50.86;95698.22;5134636;27;20054;-63
2023/10/28 05:44:50;;;;;;;1999.90;999.90;;;;;;;21.94;49.51;95701.66;5134776;27;20053;-64
2023/10/28 05:47:18;;;;;;;1999.90;999.90;;;;;;;22.00;48.61;95704.72;5134994;27;20039;-63
2023/10/28 05:49:45;;;;;;;1999.90;999.90;;;;;;;22.20;48.46;95711.59;5134612;27;20043;-64
2023/10/28 05:52:18;;;;;;;1999.90;999.90;;;;;;;22.69;48.14;95721.03;5134681;27;20076;-63
2023/10/28 05:54:45;;;;;;;1999.90;999.90;;;;;;;23.57;46.37;95713.06;5134509;27;20082;-65
2023/10/28 05:57:12;;;;;;;1999.90;999.90;;;;;;;24.15;44.00;95715.13;5134597;27;20374;-64
2023/10/28 05:59:41;;;;;;;1999.90;999.90;;;;;;;24.01;43.86;95715.72;5134432;27;20043;-64
2023/10/28 06:02:09;;;;;;;1999.90;999.90;;;;;;;23.87;44.33;95711.84;5134421;27;20051;-63
2023/10/28 06:04:37;;;;;;;1999.90;999.90;;;;;;;23.98;44.59;95714.22;5134489;27;20043;-63
2023/10/28 06:07:04;;;;;;;1999.90;999.90;;;;;;;23.85;44.58;95715.53;5134379;27;20394;-64
2023/10/28 06:09:33;;;;;;;1999.90;999.90;;;;;;;23.69;45.95;95710.13;5134621;27;20043;-65
2023/10/28 06:12:00;;;;;;;1999.90;999.90;;;;;;;24.35;45.35;95721.00;5134329;27;20055;-64
2023/10/28 06:14:27;;;;;;;1999.90;999.90;;;;;;;25.33;43.73;95727.47;5134470;27;20573;-64
2023/10/28 06:16:56;;;;;;;84.85;79.43;;;;;;;26.28;41.16;95724.09;5134286;27;20047;-65
2023/10/28 06:19:24;;;;;;;70.50;66.00;;;;;;;26.74;39.53;95729.50;5134199;27;20096;-65
2023/10/28 06:21:51;;;;;;;49.22;44.55;;;;;;;27.07;38.76;95731.09;5134171;27;20047;-65
2023/10/28 06:24:20;;;;;;;49.67;45.70;;;;;;;27.67;37.99;95722.25;5134275;27;20054;-64
2023/10/28 06:26:47;;;;;;;44.53;41.40;;;;;;;28.08;35.79;95726.25;5134384;27;20496;-63
2023/10/28 06:29:14;;;;;;;40.33;37.78;;;;;;;28.28;37.10;95732.88;5134190;27;20043;-65
2023/10/28 06:31:43;;;;;;;41.50;38.90;;;;;;;28.68;35.39;95736.00;5134136;27;20043;-65
2023/10/28 06:34:14;;;;;;;39.58;37.10;;;;;;;28.41;34.78;95733.03;5134089;27;20047;-62
2023/10/28 06:36:41;;;;;;;42.35;39.85;;;;;;;28.38;35.14;95736.94;5134084;27;20055;-62
2023/10/28 06:39:09;;;;;;;39.65;37.08;;;;;;;28.43;35.07;95735.53;5134045;27;20070;-63
2023/10/28 06:41:37;;;;;;;40.83;38.45;;;;;;;28.31;35.48;95737.91;5133898;28;20139;-62
2023/10/28 06:44:08;;;;;;;40.30;37.90;;;;;;;28.63;35.16;95739.25;5133937;28;20085;-62
2023/10/28 06:46:36;;;;;;;39.15;36.15;;;;;;;29.36;35.25;95742.78;5133912;28;20079;-63
2023/10/28 06:49:04;;;;;;;33.97;31.33;;;;;;;29.65;34.34;95750.84;5133798;28;20069;-63
2023/10/28 06:51:33;;;;;;;29.63;27.92;;;;;;;29.39;32.99;95753.16;5134800;27;20043;-64
2023/10/28 06:54:01;;;;;;;28.50;26.80;;;;;;;28.89;34.14;95756.69;5138228;27;20047;-64
2023/10/28 06:56:28;;;;;;;29.60;27.38;;;;;;;28.70;33.88;95763.53;5138396;27;20107;-62
2023/10/28 06:58:56;;;;;;;32.95;30.98;;;;;;;28.69;33.76;95756.50;5138082;27;20050;-64
2023/10/28 07:01:23;;;;;;;32.17;29.90;;;;;;;29.22;34.90;95771.47;5137909;27;20108;-64
2023/10/28 07:03:52;;;;;;;32.50;29.90;;;;;;;28.51;33.94;95767.69;5137918;27;20043;-64
2023/10/28 07:06:20;;;;;;;35.47;33.17;;;;;;;27.90;35.49;95772.31;5138204;27;20047;-63
2023/10/28 07:08:50;;;;;;;37.92;35.40;;;;;;;27.49;35.52;95771.75;5137891;27;20047;-63
2023/10/28 07:11:17;;;;;;;36.58;34.10;;;;;;;27.27;36.51;95773.47;5137901;27;20051;-62
2023/10/28 07:13:46;;;;;;;33.58;31.33;;;;;;;27.23;36.31;95783.75;5137800;27;20077;-62
2023/10/28 07:16:17;;;;;;;33.13;30.10;;;;;;;27.38;35.67;95783.78;5137615;27;20075;-62
2023/10/28 07:18:45;;;;;;;32.28;29.73;;;;;;;27.94;34.86;95786.22;5137701;27;20518;-64
2023/10/28 07:21:14;;;;;;;36.35;34.15;;;;;;;28.32;34.36;95791.47;5137488;27;20407;-63
2023/10/28 07:23:42;;;;;;;34.25;32.03;;;;;;;28.47;34.06;95793.31;5137497;27;20053;-64
2023/10/28 07:26:12;;;;;;;35.40;32.75;;;;;;;28.83;33.56;95791.59;5137429;27;20055;-65
2023/10/28 07:28:40;;;;;;;;;;;;;;;29.32;33.09;95794.53;5137781;27;20055;-62
2023/10/28 07:31:08;;;;;;;26.23;24.63;;;;;;;29.37;32.47;95792.91;5137470;27;20383;-62
2023/10/28 07:33:39;;;;;;;25.58;23.98;;;;;;;29.31;32.39;95792.88;5137433;27;20047;-62
2023/10/28 07:36:08;;;;;;;26.90;25.02;;;;;;;29.26;32.32;95799.66;5137566;27;20069;-63
2023/10/28 07:38:35;;;;;;;26.80;24.95;;;;;;;29.45;32.08;95786.53;5137026;27;20134;-64
2023/10/28 07:41:03;;;;;;;24.63;23.15;;;;;;;30.00;31.86;95793.09;5137179;27;20054;-64
2023/10/28 07:43:32;;;;;;;27.60;25.42;;;;;;;30.63;30.65;95792.13;5137203;27;20043;-63
2023/10/28 07:45:59;;;;;;;24.13;22.42;;;;;;;31.00;30.03;95793.66;5137195;27;20126;-64
2023/10/28 07:48:28;;;;;;;25.00;23.10;;;;;;;30.26;30.09;95800.53;5137059;27;20046;-63
2023/10/28 07:50:55;;;;;;;27.48;25.45;;;;;;;29.53;31.32;95796.34;5137091;27;20047;-63
2023/10/28 07:53:22;;;;;;;27.10;25.15;;;;;;;28.79;32.48;95783.06;5137066;27;20047;-64
2023/10/28 07:55:50;;;;;;;35.53;33.03;;;;;;;28.61;33.01;95788.88;5136931;27;20081;-63
2023/10/28 07:58:18;;;;;;;38.00;35.38;;;;;;;28.57;33.28;95782.22;5136874;27;20100;-64
2023/10/28 08:00:47;;;;;;;41.65;38.65;;;;;;;28.68;33.63;95784.41;5136784;27;20043;-62
2023/10/28 08:03:17;;;;;;;51.20;47.88;;;;;;;28.69;33.49;95785.25;5136040;27;20043;-63
2023/10/28 08:05:44;;;;;;;37.38;34.97;;;;;;;28.39;33.55;95778.13;5136756;27;20043;-64
2023/10/28 08:08:12;;;;;;;39.63;36.90;;;;;;;28.35;33.83;95791.09;5136558;27;20047;-64
2023/10/28 08:10:40;;;;;;;41.90;38.53;;;;;;;28.11;34.26;95795.75;5136705;27;20058;-62
2023/10/28 08:13:09;;;;;;;40.90;38.38;;;;;;;27.81;35.39;95801.13;5136575;27;20051;-64
2023/10/28 08:15:37;;;;;;;44.97;41.58;;;;;;;27.58;35.24;95791.31;5136535;27;20047;-64
2023/10/28 08:18:07;;;;;;;39.55;36.97;;;;;;;27.44;35.52;95792.09;5136513;27;20043;-63
2023/10/28 08:20:34;;;;;;;38.47;36.10;;;;;;;27.21;35.54;95799.19;5136459;27;20054;-63
2023/10/28 08:23:02;;;;;;;37.67;34.95;;;;;;;26.83;36.46;95800.00;5136338;27;20131;-65
2023/10/28 08:25:29;;;;;;;37.15;34.65;;;;;;;26.73;37.49;95800.22;5136379;27;20505;-64
2023/10/28 08:27:56;;;;;;;37.65;34.95;;;;;;;26.47;36.81;95804.09;5136324;27;20077;-63
2023/10/28 08:30:23;;;;;;;37.65;35.35;;;;;;;26.39;37.31;95801.44;5136224;27;20545;-64
2023/10/28 08:32:50;;;;;;;36.08;33.53;;;;;;;26.38;37.54;95797.09;5136177;27;20051;-63
2023/10/28 08:35:20;;;;;;;38.65;35.95;;;;;;;26.35;37.97;95795.59;5136257;27;20047;-63
2023/10/28 08:37:48;;;;;;;30.88;28.52;;;;;;;26.20;37.14;95795.47;5136019;27;20054;-64
2023/10/28 08:40:17;;;;;;;33.58;30.75;;;;;;;26.06;37.60;95798.88;5136153;27;20054;-63
2023/10/28 08:42:46;;;;;;;31.83;29.75;;;;;;;25.68;38.45;95802.22;5135925;27;20059;-62
2023/10/28 08:45:15;;;;;;;30.15;28.27;;;;;;;25.61;39.00;95802.03;5135890;27;20051;-64
2023/10/28 08:47:44;;;;;;;32.80;30.60;;;;;;;25.56;38.62;95810.59;5135796;27;20051;-63
2023/10/28 08:50:17;;;;;;;30.10;27.33;;;;;;;25.41;38.78;95804.25;5135946;27;20051;-62
2023/10/28 08:52:47;;;;;;;33.35;30.30;;;;;;;25.54;38.85;95798.34;5135791;27;20054;-63
2023/10/28 08:55:14;;;;;;;31.55;29.58;;;;;;;25.41;38.69;95807.75;5135754;27;20115;-63
2023/10/28 08:57:43;;;;;;;27.92;25.52;;;;;;;25.45;38.50;95805.56;5135755;27;20423;-64
2023/10/28 09:00:16;;;;;;;30.92;28.35;;;;;;;25.54;38.60;95801.03;5135681;27;20047;-62
2023/10/28 09:02:46;;;;;;;36.10;33.70;;;;;;;25.85;39.15;95809.19;5135633;27;20469;-64
2023/10/28 09:05:15;;;;;;;41.50;38.90;;;;;;;26.15;38.41;95800.53;5135613;27;20046;-63
2023/10/28 09:07:45;;;;;;;49.08;45.40;;;;;;;26.42;38.27;95801.09;5135277;27;20047;-62
2023/10/28 09:10:13;;;;;;;41.60;38.77;;;;;;;26.69;36.09;95808.78;5135457;27;20047;-65
2023/10/28 09:12:41;;;;;;;38.67;36.22;;;;;;;26.74;35.94;95806.41;5135431;27;20049;-63
2023/10/28 09:15:09;;;;;;;50.15;46.88;;;;;;;26.87;36.58;95811.19;5134098;27;20447;-62
2023/10/28 09:17:37;;;;;;;50.28;46.90;;;;;;;27.02;36.47;95811.25;5135314;27;20130;-63
2023/10/28 09:20:09;;;;;;;55.90;52.33;;;;;;;27.32;36.44;95811.34;5135295;27;20485;-64
2023/10/28 09:22:38;;;;;;;52.10;48.78;;;;;;;27.52;36.03;95823.41;5135093;27;20139;-63
2023/10/28 09:25:10;;;;;;;49.70;46.28;;;;;;;27.58;36.02;95817.31;5135220;27;20103;-62
2023/10/28 09:27:37;;;;;;;38.78;35.67;;;;;;;27.19;37.18;95805.75;5135195;27;20047;-64
2023/10/28 09:30:06;;;;;;;41.80;38.88;;;;;;;27.24;37.27;95808.75;5135008;27;20069;-63
2023/10/28 09:32:34;;;;;;;36.58;33.60;;;;;;;27.42;37.19;95802.22;5135138;27;20085;-64
2023/10/28 09:35:06;;;;;;;34.45;31.20;;;;;;;27.41;36.58;95805.88;5135151;27;20135;-62
2023/10/28 09:37:35;;;;;;;36.58;33.50;;;;;;;27.38;36.68;95807.94;5134810;27;20054;-62
2023/10/28 09:40:05;;;;;;;38.95;36.25;;;;;;;27.49;37.31;95801.28;5135020;27;20043;-63
2023/10/28 09:42:36;;;;;;;36.22;32.95;;;;;;;27.55;36.93;95797.03;5134891;27;20533;-64
2023/10/28 09:45:05;;;;;;;36.53;33.50;;;;;;;27.58;36.90;95795.81;5134923;27;20046;-63
2023/10/28 09:47:51;;;;;;;44.07;40.40;;;;;;;27.21;37.03;95793.00;5134889;27;20051;-63
2023/10/28 09:50:22;;;;;;;42.80;39.47;;;;;;;27.19;36.92;95789.66;5134644;27;20053;-64
2023/10/28 09:52:52;;;;;;;52.70;49.03;;;;;;;27.26;36.84;95782.53;5134766;27;20130;-62
2023/10/28 09:55:24;;;;;;;45.95;42.40;;;;;;;27.32;36.87;95784.50;5134586;27;20076;-64
2023/10/28 09:58:00;;;;;;;47.83;44.45;;;;;;;27.20;36.21;95784.13;5134609;27;20047;-64
2023/10/28 10:00:30;;;;;;;45.08;41.65;;;;;;;26.94;37.26;95779.94;5134548;27;20401;-62
2023/10/28 10:03:08;;;;;;;47.70;44.35;;;;;;;27.03;37.09;95786.09;5134331;27;20138;-62
2023/10/28 10:05:40;;;;;;;45.75;42.65;;;;;;;27.17;36.33;95784.47;5134497;27;20047;-61
2023/10/28 10:08:18;;;;;;;40.92;37.58;;;;;;;27.28;36.14;95787.72;5134464;27;20050;-61
2023/10/28 10:10:47;;;;;;;40.17;37.25;;;;;;;27.38;36.10;95789.16;5134291;27;20482;-63
2023/10/28 10:13:16;;;;;;;36.45;33.60;;;;;;;27.46;35.98;95782.88;5134482;27;20463;-63
2023/10/28 10:15:53;;;;;;;35.00;32.53;;;;;;;27.44;36.36;95773.31;5134280;27;20510;-65
2023/10/28 10:18:31;;;;;;;36.17;33.58;;;;;;;27.35;35.72;95784.13;5134315;27;20046;-62
2023/10/28 10:21:05;;;;;;;33.92;31.30;;;;;;;27.06;35.86;95782.25;5134286;27;20055;-61
2023/10/28 10:23:41;;;;;;;30.75;28.35;;;;;;;27.04;35.95;95782.41;5134059;27;20047;-66
2023/10/28 10:26:08;;;;;;;32.42;29.92;;;;;;;27.11;35.60;95775.31;5133702;27;20043;-63
2023/10/28 10:28:47;;;;;;;32.80;30.58;;;;;;;27.29;36.42;95768.75;5134066;27;20408;-63
2023/10/28 10:31:18;;;;;;;35.92;32.53;;;;;;;27.40;35.76;95767.50;5134115;27;20047;-63
2023/10/28 10:33:45;;;;;;;29.95;27.73;;;;;;;27.30;35.07;95769.59;5134091;27;20104;-63
2023/10/28 10:36:17;;;;;;;34.58;31.90;;;;;;;27.17;35.86;95767.53;5134028;27;20047;-63
2023/10/28 10:38:46;;;;;;;30.80;28.38;;;;;;;27.04;35.86;95768.16;5133780;27;20497;-64
2023/10/28 10:41:26;;;;;;;34.65;32.03;;;;;;;26.94;37.25;95763.03;5133915;28;20085;-62
2023/10/28 10:43:55;;;;;;;32.25;29.83;;;;;;;27.05;36.16;95767.97;5133942;28;20047;-62
2023/10/28 10:46:23;;;;;;;33.97;31.02;;;;;;;27.11;35.98;95756.53;5134011;28;20068;-62
2023/10/28 10:48:51;;;;;;;32.50;29.67;;;;;;;27.09;36.23;95757.72;5133960;28;20126;-62
2023/10/28 10:51:19;;;;;;;31.08;28.50;;;;;;;27.06;36.42;95758.91;5133791;28;20068;-64
2023/10/28 10:53:47;;;;;;;34.53;30.77;;;;;;;27.12;36.78;95752.00;5133791;28;20141;-63
2023/10/28 10:56:23;;;;;;;33.63;31.15;;;;;;;27.28;35.68;95752.84;5134097;28;20129;-62
2023/10/28 10:58:51;;;;;;;30.65;27.92;;;;;;;27.40;35.61;95747.84;5133732;28;20047;-63
2023/10/28 11:01:20;;;;;;;32.90;30.38;;;;;;;27.53;35.21;95749.88;5133727;28;20058;-65
2023/10/28 11:03:48;;;;;;;31.27;28.52;;;;;;;27.33;34.51;95750.47;5133875;28;20059;-62
2023/10/28 11:06:16;;;;;;;31.92;29.67;;;;;;;27.43;34.35;95742.13;5133807;28;20047;-62
2023/10/28 11:08:44;;;;;;;30.83;28.88;;;;;;;27.62;33.86;95752.31;5133642;28;20484;-61
2023/10/28 11:11:13;;;;;;;30.77;28.02;;;;;;;27.62;32.77;95740.72;5133675;28;20481;-63